Currently 38°F in Anza, California, USA
38°F
39°F / 35°F
2 mph NW
0.21"
Saturday, January 21, 2017 9:21 AM PST

Anza, California Weather Summary
Last 36 Hours

Temperature Winds Hourly Humidity Dewpoint
Time Report Norm Report Norm Max Gusts Precip. Rpt. Norm Rpt. Norm Pressure
1Sat 09:21 AM  38.1°F  56°F  2 mph NW  7 mph  25 mph  0.00"  97%  44%  37°F  33°F  N/A
2Sat 09:12 AM  38.6°F  55°F  19 mph W  6 mph  26 mph  ----  97%  45%  38°F  33°F  N/A
Sat 09:00 AM  38.1°F  54°F  11 mph NW  7 mph  27 mph  0.00"  98%  46%  37°F  33°F  N/A
Sat 08:00 AM  36.2°F  49°F  calm  5 mph  26 mph  0.02"  99%  54%  36°F  33°F  N/A
Sat 07:00 AM  35.4°F  45°F  13 mph W  4 mph  31 mph  0.03"  100%  58%  35°F  30°F  N/A
3Sat 06:35 AM  34.7°F  44°F  3 mph NW  4 mph  26 mph  ----  100%  58%  35°F  30°F  N/A
Sat 06:00 AM  35.5°F  44°F  11 mph NW  4 mph  36 mph  0.01"  99%  58%  35°F  30°F  N/A
Sat 05:00 AM  35.6°F  44°F  21 mph W  4 mph  35 mph  0.01"  98%  59%  35°F  30°F  N/A
Sat 04:00 AM  35.5°F  44°F  5 mph NW  4 mph  36 mph  0.02"  100%  58%  35°F  30°F  N/A
Sat 03:00 AM  35.8°F  44°F  10 mph W  3 mph  30 mph  0.02"  99%  59%  36°F  30°F  N/A
Sat 02:00 AM  35.4°F  44°F  19 mph W  3 mph  34 mph  0.03"  99%  59%  35°F  30°F  N/A
Sat 01:00 AM  35.8°F  44°F  21 mph W  3 mph  36 mph  0.07"  100%  59%  36°F  30°F  N/A
Sat 12:00 AM  35.7°F  44°F  18 mph W  4 mph  35 mph  0.08"  100%  60%  36°F  30°F  N/A
Fri 11:00 PM  35.9°F  43°F  9 mph NW  3 mph  35 mph  0.09"  98%  60%  35°F  30°F  N/A
Fri 10:00 PM  38.0°F  44°F  22 mph W  3 mph  35 mph  0.06"  99%  59%  38°F  30°F  N/A
Fri 09:00 PM  38.5°F  45°F  22 mph W  3 mph  36 mph  0.04"  99%  58%  38°F  31°F  N/A
Fri 08:00 PM  38.5°F  45°F  21 mph W  4 mph  34 mph  0.00"  98%  58%  38°F  31°F  N/A
Fri 07:00 PM  38.9°F  47°F  17 mph W  4 mph  40 mph  0.12"  98%  56%  39°F  31°F  N/A
Fri 06:00 PM  39.5°F  50°F  19 mph W  4 mph  35 mph  0.22"  99%  52%  39°F  32°F  N/A
Fri 05:00 PM  41.3°F  54°F  16 mph W  5 mph  44 mph  0.05"  99%  46%  41°F  33°F  N/A
Fri 04:00 PM  41.1°F  58°F  29 mph W  8 mph  39 mph  0.33"  99%  41%  41°F  33°F  N/A
Fri 03:00 PM  40.7°F  59°F  16 mph W  9 mph  36 mph  0.45"  98%  38%  40°F  33°F  N/A
Fri 02:00 PM  42.3°F  60°F  13 mph S  10 mph  29 mph  0.18"  97%  37%  42°F  32°F  N/A
Fri 01:00 PM  41.0°F  60°F  calm  9 mph  26 mph  0.13"  97%  37%  40°F  33°F  N/A
Fri 12:00 PM  42.6°F  59°F  calm  9 mph  20 mph  0.07"  97%  37%  42°F  32°F  N/A
Fri 11:00 AM  42.4°F  58°F  10 mph SW  9 mph  21 mph  0.03"  97%  38%  41°F  32°F  N/A
Fri 10:00 AM  41.7°F  57°F  calm  9 mph  none  0.01"  97%  40%  41°F  32°F  N/A
Fri 09:00 AM  39.6°F  54°F  calm  7 mph  none  0.03"  99%  46%  39°F  33°F  N/A
Fri 08:00 AM  38.9°F  49°F  calm  5 mph  18 mph  0.06"  99%  53%  39°F  32°F  N/A
Fri 07:00 AM  39.0°F  44°F  calm  4 mph  23 mph  0.03"  99%  57%  39°F  29°F  N/A
Fri 06:00 AM  39.1°F  44°F  14 mph NW  4 mph  21 mph  0.02"  99%  58%  39°F  29°F  N/A
Fri 05:00 AM  39.9°F  44°F  calm  4 mph  22 mph  0.00"  100%  58%  40°F  29°F  N/A
Fri 04:00 AM  40.1°F  44°F  16 mph W  4 mph  27 mph  0.04"  100%  58%  40°F  29°F  N/A
Fri 03:00 AM  40.2°F  44°F  14 mph NW  3 mph  28 mph  0.03"  99%  58%  40°F  29°F  N/A
Fri 02:00 AM  39.8°F  43°F  17 mph W  3 mph  26 mph  0.01"  99%  58%  39°F  29°F  N/A
Fri 01:00 AM  40.3°F  44°F  calm  3 mph  27 mph  0.01"  99%  58%  40°F  29°F  N/A
Fri 12:00 AM  39.7°F  44°F  21 mph W  4 mph  33 mph  0.01"  98%  59%  39°F  30°F  N/A
Thu 11:00 PM  39.9°F  43°F  22 mph W  3 mph  28 mph  0.01"  99%  59%  39°F  29°F  N/A
Thu 10:00 PM  39.7°F  44°F  15 mph W  3 mph  28 mph  0.00"  99%  58%  39°F  30°F  N/A

  1. Current weather data. No green row appears if the current weather data is also the high or low for the current day.
  2. High temperature for the current day.
  3. Low temperature for the current day.

The Anza, California weather pages are a service of WeatherCurrents. The Anza Valley is southwestern Riverside County, east of Temecula and Aguanga, south of Mount San Jacinto and west of Mount Santa Rosa.
Copyright ©Sat Jan 21 09:21:35 PST 2017  WeatherCurrents. All rights reserved. - Submit questions and comments - Privacy Policy

This page automatically refreshes every 10 minutes.